sensor_id;sensor_type;location;lat;lon;timestamp;pressure;altitude;pressure_sealevel;temperature;humidity
72110;BME280;59983;52.010;5.420;2022-10-15T00:00:11;100834.13;;;12.07;95.15
72110;BME280;59983;52.010;5.420;2022-10-15T00:02:37;100825.19;;;12.07;95.42
72110;BME280;59983;52.010;5.420;2022-10-15T00:05:04;100818.59;;;12.08;95.63
72110;BME280;59983;52.010;5.420;2022-10-15T00:07:30;100818.25;;;12.09;95.75
72110;BME280;59983;52.010;5.420;2022-10-15T00:09:57;100817.56;;;12.12;95.95
72110;BME280;59983;52.010;5.420;2022-10-15T00:12:23;100816.56;;;12.21;95.79
72110;BME280;59983;52.010;5.420;2022-10-15T00:14:50;100813.06;;;12.20;95.98
72110;BME280;59983;52.010;5.420;2022-10-15T00:17:16;100821.69;;;12.26;96.19
72110;BME280;59983;52.010;5.420;2022-10-15T00:19:43;100814.78;;;12.28;96.08
72110;BME280;59983;52.010;5.420;2022-10-15T00:22:09;100818.28;;;12.29;95.98
72110;BME280;59983;52.010;5.420;2022-10-15T00:24:36;100808.53;;;12.28;96.04
72110;BME280;59983;52.010;5.420;2022-10-15T00:27:02;100803.09;;;12.28;96.20
72110;BME280;59983;52.010;5.420;2022-10-15T00:29:29;100808.09;;;12.26;96.33
72110;BME280;59983;52.010;5.420;2022-10-15T00:31:55;100808.81;;;12.23;96.37
72110;BME280;59983;52.010;5.420;2022-10-15T00:34:22;100804.59;;;12.25;96.57
72110;BME280;59983;52.010;5.420;2022-10-15T00:36:49;100802.75;;;12.29;96.75
72110;BME280;59983;52.010;5.420;2022-10-15T00:39:16;100804.31;;;12.30;96.73
72110;BME280;59983;52.010;5.420;2022-10-15T00:41:43;100809.41;;;12.32;96.59
72110;BME280;59983;52.010;5.420;2022-10-15T00:46:58;100811.34;;;12.31;96.64
72110;BME280;59983;52.010;5.420;2022-10-15T00:49:37;100811.34;;;12.31;96.46
72110;BME280;59983;52.010;5.420;2022-10-15T00:52:08;100812.06;;;12.28;96.44
72110;BME280;59983;52.010;5.420;2022-10-15T00:54:41;100803.44;;;12.26;96.68
72110;BME280;59983;52.010;5.420;2022-10-15T00:57:10;100811.59;;;12.26;96.45
72110;BME280;59983;52.010;5.420;2022-10-15T00:59:43;100808.09;;;12.26;96.56
72110;BME280;59983;52.010;5.420;2022-10-15T01:02:12;100810.81;;;12.26;96.44
72110;BME280;59983;52.010;5.420;2022-10-15T01:04:40;100803.09;;;12.28;96.50
72110;BME280;59983;52.010;5.420;2022-10-15T01:07:07;100808.09;;;12.26;96.71
72110;BME280;59983;52.010;5.420;2022-10-15T01:09:34;100809.63;;;12.23;96.52
72110;BME280;59983;52.010;5.420;2022-10-15T01:12:01;100811.19;;;12.24;96.32
72110;BME280;59983;52.010;5.420;2022-10-15T01:32:01;100781.25;;;12.43;96.38
72110;BME280;59983;52.010;5.420;2022-10-15T01:34:41;100770.75;;;12.42;96.55
72110;BME280;59983;52.010;5.420;2022-10-15T01:37:15;100779.34;;;12.44;96.40
72110;BME280;59983;52.010;5.420;2022-10-15T01:39:50;100775.47;;;12.45;96.54
72110;BME280;59983;52.010;5.420;2022-10-15T01:42:26;100771.63;;;12.46;96.24
72110;BME280;59983;52.010;5.420;2022-10-15T01:44:59;100779.78;;;12.46;96.39
72110;BME280;59983;52.010;5.420;2022-10-15T01:47:33;100779.78;;;12.46;96.30
72110;BME280;59983;52.010;5.420;2022-10-15T01:50:03;100766.19;;;12.46;96.52
72110;BME280;59983;52.010;5.420;2022-10-15T01:52:33;100769.59;;;12.43;96.37
72110;BME280;59983;52.010;5.420;2022-10-15T01:55:05;100764.59;;;12.45;96.38
72110;BME280;59983;52.010;5.420;2022-10-15T01:57:32;100751.72;;;12.42;96.22
72110;BME280;59983;52.010;5.420;2022-10-15T02:00:01;100753.63;;;12.41;96.17
72110;BME280;59983;52.010;5.420;2022-10-15T02:02:29;100761.00;;;12.41;96.10
72110;BME280;59983;52.010;5.420;2022-10-15T02:04:56;100756.31;;;12.38;96.19
72110;BME280;59983;52.010;5.420;2022-10-15T02:07:31;100761.75;;;12.38;95.92
72110;BME280;59983;52.010;5.420;2022-10-15T02:10:18;100748.47;;;12.36;96.28
72110;BME280;59983;52.010;5.420;2022-10-15T02:18:29;100740.41;;;12.40;96.10
72110;BME280;59983;52.010;5.420;2022-10-15T02:21:11;100743.50;;;12.38;96.39
72110;BME280;59983;52.010;5.420;2022-10-15T02:23:56;100737.59;;;12.36;96.14
72110;BME280;59983;52.010;5.420;2022-10-15T02:26:28;100748.56;;;12.40;96.38
72110;BME280;59983;52.010;5.420;2022-10-15T02:28:58;100736.59;;;12.44;96.47
72110;BME280;59983;52.010;5.420;2022-10-15T02:31:28;100736.03;;;12.55;96.39
72110;BME280;59983;52.010;5.420;2022-10-15T02:34:00;100738.03;;;12.58;96.45
72110;BME280;59983;52.010;5.420;2022-10-15T02:36:28;100729.13;;;12.61;96.31
72110;BME280;59983;52.010;5.420;2022-10-15T02:38:56;100728.41;;;12.64;96.25
72110;BME280;59983;52.010;5.420;2022-10-15T02:41:27;100721.50;;;12.70;96.22
72110;BME280;59983;52.010;5.420;2022-10-15T02:43:54;100712.97;;;12.71;96.19
72110;BME280;59983;52.010;5.420;2022-10-15T02:46:21;100706.88;;;12.78;96.09
72110;BME280;59983;52.010;5.420;2022-10-15T02:48:47;100713.06;;;12.75;96.10
72110;BME280;59983;52.010;5.420;2022-10-15T02:51:13;100705.59;;;12.72;96.20
72110;BME280;59983;52.010;5.420;2022-10-15T02:53:40;100704.13;;;12.74;96.10
72110;BME280;59983;52.010;5.420;2022-10-15T02:56:06;100699.88;;;12.77;95.98
72110;BME280;59983;52.010;5.420;2022-10-15T02:58:33;100696.31;;;12.73;95.64
72110;BME280;59983;52.010;5.420;2022-10-15T03:00:59;100681.78;;;12.65;95.81
72110;BME280;59983;52.010;5.420;2022-10-15T03:03:26;100688.69;;;12.59;95.43
72110;BME280;59983;52.010;5.420;2022-10-15T03:05:52;100690.19;;;12.57;96.31
72110;BME280;59983;52.010;5.420;2022-10-15T03:08:19;100687.16;;;12.62;96.04
72110;BME280;59983;52.010;5.420;2022-10-15T03:10:45;100690.56;;;12.55;96.07
72110;BME280;59983;52.010;5.420;2022-10-15T03:13:12;100683.06;;;12.48;96.22
72110;BME280;59983;52.010;5.420;2022-10-15T03:15:39;100679.47;;;12.44;96.04
72110;BME280;59983;52.010;5.420;2022-10-15T03:18:06;100677.97;;;12.47;96.47
72110;BME280;59983;52.010;5.420;2022-10-15T03:20:33;100680.47;;;12.56;96.36
72110;BME280;59983;52.010;5.420;2022-10-15T03:22:59;100670.38;;;12.56;96.55
72110;BME280;59983;52.010;5.420;2022-10-15T03:25:26;100679.44;;;12.64;96.64
72110;BME280;59983;52.010;5.420;2022-10-15T03:27:52;100674.41;;;12.66;96.59
72110;BME280;59983;52.010;5.420;2022-10-15T03:30:19;100669.38;;;12.68;96.58
72110;BME280;59983;52.010;5.420;2022-10-15T03:32:46;100667.09;;;12.70;96.38
72110;BME280;59983;52.010;5.420;2022-10-15T03:35:13;100668.84;;;12.59;95.68
72110;BME280;59983;52.010;5.420;2022-10-15T03:37:40;100673.59;;;12.42;95.51
72110;BME280;59983;52.010;5.420;2022-10-15T03:40:07;100670.34;;;12.33;95.50
72110;BME280;59983;52.010;5.420;2022-10-15T03:42:40;100673.34;;;12.28;95.33
72110;BME280;59983;52.010;5.420;2022-10-15T03:45:07;100673.34;;;12.28;95.56
72110;BME280;59983;52.010;5.420;2022-10-15T03:47:33;100669.19;;;12.34;95.65
72110;BME280;59983;52.010;5.420;2022-10-15T03:50:00;100673.34;;;12.28;95.23
72110;BME280;59983;52.010;5.420;2022-10-15T03:52:26;100675.56;;;12.23;95.22
72110;BME280;59983;52.010;5.420;2022-10-15T03:54:53;100679.03;;;12.19;95.10
72110;BME280;59983;52.010;5.420;2022-10-15T03:57:19;100681.59;;;12.12;94.84
72110;BME280;59983;52.010;5.420;2022-10-15T03:59:46;100677.66;;;12.10;95.07
72110;BME280;59983;52.010;5.420;2022-10-15T04:02:12;100670.22;;;12.07;95.06
72110;BME280;59983;52.010;5.420;2022-10-15T04:04:39;100681.81;;;12.04;94.99
72110;BME280;59983;52.010;5.420;2022-10-15T04:07:05;100687.63;;;12.02;95.12
72110;BME280;59983;52.010;5.420;2022-10-15T04:09:32;100682.97;;;12.03;94.84
72110;BME280;59983;52.010;5.420;2022-10-15T04:11:58;100688.69;;;11.98;94.84
72110;BME280;59983;52.010;5.420;2022-10-15T04:14:25;100690.59;;;11.97;94.67
72110;BME280;59983;52.010;5.420;2022-10-15T04:16:51;100691.34;;;11.94;94.73
72110;BME280;59983;52.010;5.420;2022-10-15T04:19:17;100688.25;;;11.96;94.92
72110;BME280;59983;52.010;5.420;2022-10-15T04:21:44;100694.47;;;11.96;94.98
72110;BME280;59983;52.010;5.420;2022-10-15T04:24:10;100692.91;;;11.95;95.14
72110;BME280;59983;52.010;5.420;2022-10-15T04:26:37;100690.66;;;12.01;95.09
72110;BME280;59983;52.010;5.420;2022-10-15T04:29:03;100689.56;;;12.02;94.98
72110;BME280;59983;52.010;5.420;2022-10-15T04:31:30;100690.56;;;11.94;95.21
72110;BME280;59983;52.010;5.420;2022-10-15T04:33:56;100689.31;;;11.91;95.31
72110;BME280;59983;52.010;5.420;2022-10-15T04:36:23;100698.63;;;11.90;95.61
72110;BME280;59983;52.010;5.420;2022-10-15T04:38:51;100708.50;;;11.98;95.73
72110;BME280;59983;52.010;5.420;2022-10-15T04:41:17;100708.22;;;12.03;95.78
72110;BME280;59983;52.010;5.420;2022-10-15T04:43:44;100720.03;;;12.11;96.24
72110;BME280;59983;52.010;5.420;2022-10-15T04:46:11;100715.44;;;12.15;96.07
72110;BME280;59983;52.010;5.420;2022-10-15T04:48:37;100714.00;;;12.21;96.38
72110;BME280;59983;52.010;5.420;2022-10-15T04:51:14;100705.13;;;12.24;96.19
72110;BME280;59983;52.010;5.420;2022-10-15T04:53:41;100702.69;;;12.19;96.10
72110;BME280;59983;52.010;5.420;2022-10-15T04:56:15;100697.19;;;12.15;95.86
72110;BME280;59983;52.010;5.420;2022-10-15T04:58:45;100697.97;;;12.16;95.98
72110;BME280;59983;52.010;5.420;2022-10-15T05:01:14;100696.34;;;12.11;95.99
72110;BME280;59983;52.010;5.420;2022-10-15T05:03:43;100690.19;;;12.14;96.29
72110;BME280;59983;52.010;5.420;2022-10-15T05:06:16;100700.28;;;12.14;96.12
72110;BME280;59983;52.010;5.420;2022-10-15T05:08:43;100695.97;;;12.13;96.34
72110;BME280;59983;52.010;5.420;2022-10-15T05:11:21;100697.81;;;12.09;96.26
72110;BME280;59983;52.010;5.420;2022-10-15T05:13:48;100688.97;;;12.12;96.36
72110;BME280;59983;52.010;5.420;2022-10-15T05:16:26;100698.75;;;12.16;96.49
72110;BME280;59983;52.010;5.420;2022-10-15T05:19:00;100696.47;;;12.18;96.82
72110;BME280;59983;52.010;5.420;2022-10-15T05:21:27;100699.03;;;12.31;97.21
72110;BME280;59983;52.010;5.420;2022-10-15T05:23:54;100699.97;;;12.38;97.32
72110;BME280;59983;52.010;5.420;2022-10-15T05:26:22;100698.44;;;12.41;97.26
72110;BME280;59983;52.010;5.420;2022-10-15T05:28:49;100698.03;;;12.39;97.68
72110;BME280;59983;52.010;5.420;2022-10-15T05:31:21;100698.03;;;12.39;97.85
72110;BME280;59983;52.010;5.420;2022-10-15T05:33:49;100701.16;;;12.41;98.46
72110;BME280;59983;52.010;5.420;2022-10-15T05:36:17;100698.44;;;12.41;98.97
72110;BME280;59983;52.010;5.420;2022-10-15T05:38:46;100696.50;;;12.41;99.27
72110;BME280;59983;52.010;5.420;2022-10-15T05:41:13;100685.63;;;12.41;99.60
72110;BME280;59983;52.010;5.420;2022-10-15T05:43:40;100686.84;;;12.44;99.82
72110;BME280;59983;52.010;5.420;2022-10-15T05:46:07;100700.16;;;12.49;99.82
72110;BME280;59983;52.010;5.420;2022-10-15T05:48:34;100692.00;;;12.49;100.00
72110;BME280;59983;52.010;5.420;2022-10-15T05:51:02;100700.06;;;12.45;100.00
72110;BME280;59983;52.010;5.420;2022-10-15T05:53:29;100696.66;;;12.48;100.00
72110;BME280;59983;52.010;5.420;2022-10-15T05:55:56;100697.06;;;12.51;100.00
72110;BME280;59983;52.010;5.420;2022-10-15T05:58:25;100699.00;;;12.50;100.00
72110;BME280;59983;52.010;5.420;2022-10-15T06:00:53;100690.06;;;12.50;100.00
72110;BME280;59983;52.010;5.420;2022-10-15T06:03:20;100695.13;;;12.51;100.00
72110;BME280;59983;52.010;5.420;2022-10-15T06:05:46;100686.19;;;12.51;100.00
72110;BME280;59983;52.010;5.420;2022-10-15T06:08:13;100685.03;;;12.52;100.00
72110;BME280;59983;52.010;5.420;2022-10-15T06:10:40;100690.13;;;12.53;100.00
72110;BME280;59983;52.010;5.420;2022-10-15T06:13:07;100678.91;;;12.55;100.00
72110;BME280;59983;52.010;5.420;2022-10-15T06:15:33;100684.75;;;12.57;100.00
72110;BME280;59983;52.010;5.420;2022-10-15T06:18:00;100678.56;;;12.60;100.00
72110;BME280;59983;52.010;5.420;2022-10-15T06:20:26;100674.00;;;12.64;100.00
72110;BME280;59983;52.010;5.420;2022-10-15T06:22:59;100694.31;;;12.70;100.00
72110;BME280;59983;52.010;5.420;2022-10-15T06:25:27;100688.84;;;12.70;100.00
72110;BME280;59983;52.010;5.420;2022-10-15T06:27:53;100690.44;;;12.71;100.00
72110;BME280;59983;52.010;5.420;2022-10-15T06:30:20;100690.09;;;12.72;100.00
72110;BME280;59983;52.010;5.420;2022-10-15T06:32:51;100691.66;;;12.73;100.00
72110;BME280;59983;52.010;5.420;2022-10-15T06:35:19;100697.16;;;12.77;100.00
72110;BME280;59983;52.010;5.420;2022-10-15T06:37:46;100686.25;;;12.77;100.00
72110;BME280;59983;52.010;5.420;2022-10-15T06:40:13;100687.47;;;12.80;100.00
72110;BME280;59983;52.010;5.420;2022-10-15T06:42:41;100682.88;;;12.84;100.00
72110;BME280;59983;52.010;5.420;2022-10-15T06:45:08;100687.94;;;12.85;100.00
72110;BME280;59983;52.010;5.420;2022-10-15T06:47:36;100688.38;;;12.87;100.00
72110;BME280;59983;52.010;5.420;2022-10-15T06:50:04;100688.44;;;12.91;100.00
72110;BME280;59983;52.010;5.420;2022-10-15T06:52:31;100681.53;;;12.97;100.00
72110;BME280;59983;52.010;5.420;2022-10-15T06:54:58;100690.91;;;12.99;100.00
72110;BME280;59983;52.010;5.420;2022-10-15T06:57:26;100685.47;;;12.99;99.96
72110;BME280;59983;52.010;5.420;2022-10-15T06:59:53;100701.50;;;13.04;99.73
72110;BME280;59983;52.010;5.420;2022-10-15T07:02:20;100689.06;;;13.07;100.00
72110;BME280;59983;52.010;5.420;2022-10-15T07:04:47;100679.41;;;13.10;99.84
72110;BME280;59983;52.010;5.420;2022-10-15T07:07:14;100690.41;;;13.17;99.77
72110;BME280;59983;52.010;5.420;2022-10-15T07:09:40;100688.91;;;13.19;99.62
72110;BME280;59983;52.010;5.420;2022-10-15T07:12:07;100691.66;;;13.19;99.59
72110;BME280;59983;52.010;5.420;2022-10-15T07:14:34;100696.72;;;13.21;99.52
72110;BME280;59983;52.010;5.420;2022-10-15T07:17:07;100696.72;;;13.21;99.32
72110;BME280;59983;52.010;5.420;2022-10-15T07:19:34;100697.88;;;13.20;99.17
72110;BME280;59983;52.010;5.420;2022-10-15T07:22:00;100704.09;;;13.20;99.22
72110;BME280;59983;52.010;5.420;2022-10-15T07:24:27;100711.50;;;13.20;99.10
72110;BME280;59983;52.010;5.420;2022-10-15T07:26:53;100708.78;;;13.20;99.20
72110;BME280;59983;52.010;5.420;2022-10-15T07:29:20;100705.25;;;13.19;99.19
72110;BME280;59983;52.010;5.420;2022-10-15T07:31:46;100699.06;;;13.22;99.10
72110;BME280;59983;52.010;5.420;2022-10-15T07:34:13;100694.41;;;13.23;99.09
72110;BME280;59983;52.010;5.420;2022-10-15T07:36:39;100693.31;;;13.27;99.11
72110;BME280;59983;52.010;5.420;2022-10-15T07:39:07;100678.19;;;13.30;98.94
72110;BME280;59983;52.010;5.420;2022-10-15T07:41:33;100679.44;;;13.36;99.13
72110;BME280;59983;52.010;5.420;2022-10-15T07:44:00;100685.31;;;13.38;99.12
72110;BME280;59983;52.010;5.420;2022-10-15T07:46:26;100686.13;;;13.42;99.14
72110;BME280;59983;52.010;5.420;2022-10-15T07:48:53;100690.84;;;13.45;99.03
72110;BME280;59983;52.010;5.420;2022-10-15T07:51:19;100690.13;;;13.48;98.89
72110;BME280;59983;52.010;5.420;2022-10-15T07:53:46;100689.38;;;13.51;98.82
72110;BME280;59983;52.010;5.420;2022-10-15T07:56:14;100687.44;;;13.52;98.58
72110;BME280;59983;52.010;5.420;2022-10-15T07:58:41;100680.13;;;13.59;98.53
72110;BME280;59983;52.010;5.420;2022-10-15T08:01:09;100680.63;;;13.65;98.22
72110;BME280;59983;52.010;5.420;2022-10-15T08:03:36;100675.19;;;13.69;98.27
72110;BME280;59983;52.010;5.420;2022-10-15T08:06:04;100673.31;;;13.73;98.14
72110;BME280;59983;52.010;5.420;2022-10-15T08:08:32;100681.53;;;13.76;98.19
72110;BME280;59983;52.010;5.420;2022-10-15T08:11:10;100671.09;;;13.82;98.18
72110;BME280;59983;52.010;5.420;2022-10-15T08:13:36;100672.66;;;13.83;98.13
72110;BME280;59983;52.010;5.420;2022-10-15T08:16:08;100671.13;;;13.85;98.15
72110;BME280;59983;52.010;5.420;2022-10-15T08:18:34;100663.00;;;13.89;97.99
72110;BME280;59983;52.010;5.420;2022-10-15T08:21:01;100663.09;;;13.96;98.09
72110;BME280;59983;52.010;5.420;2022-10-15T08:23:28;100662.75;;;14.01;97.79
72110;BME280;59983;52.010;5.420;2022-10-15T08:25:57;100658.91;;;14.06;97.69
72110;BME280;59983;52.010;5.420;2022-10-15T08:28:24;100646.16;;;14.13;97.79
72110;BME280;59983;52.010;5.420;2022-10-15T08:30:50;100651.66;;;14.21;97.55
72110;BME280;59983;52.010;5.420;2022-10-15T08:33:17;100642.75;;;14.27;97.52
72110;BME280;59983;52.010;5.420;2022-10-15T08:35:43;100642.06;;;14.34;97.31
72110;BME280;59983;52.010;5.420;2022-10-15T08:38:10;100645.19;;;14.36;97.06
72110;BME280;59983;52.010;5.420;2022-10-15T08:40:54;100648.25;;;14.31;96.66
72110;BME280;59983;52.010;5.420;2022-10-15T08:43:34;100642.47;;;14.36;97.27
72110;BME280;59983;52.010;5.420;2022-10-15T08:46:08;100641.34;;;14.40;96.55
72110;BME280;59983;52.010;5.420;2022-10-15T08:48:40;100640.50;;;14.33;96.22
72110;BME280;59983;52.010;5.420;2022-10-15T08:51:41;100635.38;;;14.28;96.18
72110;BME280;59983;52.010;5.420;2022-10-15T08:54:17;100636.53;;;14.30;96.22
72110;BME280;59983;52.010;5.420;2022-10-15T08:56:47;100625.31;;;14.39;96.50
72110;BME280;59983;52.010;5.420;2022-10-15T08:59:29;100633.19;;;14.44;96.33
72110;BME280;59983;52.010;5.420;2022-10-15T09:02:09;100629.72;;;14.47;96.27
72110;BME280;59983;52.010;5.420;2022-10-15T09:07:35;100631.34;;;14.52;95.64
72110;BME280;59983;52.010;5.420;2022-10-15T09:13:25;100629.88;;;14.65;94.63
72110;BME280;59983;52.010;5.420;2022-10-15T09:18:47;100603.03;;;14.74;95.04
72110;BME280;59983;52.010;5.420;2022-10-15T09:21:15;100604.66;;;14.79;94.89
72110;BME280;59983;52.010;5.420;2022-10-15T09:23:42;100614.84;;;14.85;94.97
72110;BME280;59983;52.010;5.420;2022-10-15T09:26:26;100598.84;;;14.87;94.33
72110;BME280;59983;52.010;5.420;2022-10-15T09:29:02;100599.69;;;14.98;94.63
72110;BME280;59983;52.010;5.420;2022-10-15T09:31:50;100598.19;;;15.05;94.43
72110;BME280;59983;52.010;5.420;2022-10-15T09:34:26;100598.25;;;15.12;94.42
72110;BME280;59983;52.010;5.420;2022-10-15T09:36:56;100598.25;;;15.15;93.76
72110;BME280;59983;52.010;5.420;2022-10-15T09:42:28;100584.25;;;15.20;93.23
72110;BME280;59983;52.010;5.420;2022-10-15T09:45:02;100581.91;;;15.26;93.16
72110;BME280;59983;52.010;5.420;2022-10-15T09:47:32;100587.41;;;15.29;93.36
72110;BME280;59983;52.010;5.420;2022-10-15T09:49:59;100583.47;;;15.27;93.68
72110;BME280;59983;52.010;5.420;2022-10-15T09:58:09;100584.59;;;15.15;93.66
72110;BME280;59983;52.010;5.420;2022-10-15T10:00:53;100582.25;;;15.14;93.94
72110;BME280;59983;52.010;5.420;2022-10-15T10:03:22;100576.78;;;15.14;94.68
72110;BME280;59983;52.010;5.420;2022-10-15T10:05:49;100573.66;;;15.12;94.84
72110;BME280;59983;52.010;5.420;2022-10-15T10:08:24;100561.53;;;15.09;95.06
72110;BME280;59983;52.010;5.420;2022-10-15T10:10:55;100566.53;;;15.00;95.56
72110;BME280;59983;52.010;5.420;2022-10-15T10:13:29;100570.81;;;14.94;95.84
72110;BME280;59983;52.010;5.420;2022-10-15T10:16:03;100562.97;;;14.92;96.91
72110;BME280;59983;52.010;5.420;2022-10-15T10:18:30;100566.13;;;14.94;97.31
72110;BME280;59983;52.010;5.420;2022-10-15T10:21:00;100568.09;;;14.94;98.66
72110;BME280;59983;52.010;5.420;2022-10-15T10:23:37;100564.97;;;14.95;100.00
72110;BME280;59983;52.010;5.420;2022-10-15T10:26:06;100555.59;;;14.96;100.00
72110;BME280;59983;52.010;5.420;2022-10-15T10:28:36;100557.16;;;14.94;100.00
72110;BME280;59983;52.010;5.420;2022-10-15T10:31:09;100559.06;;;14.86;100.00
72110;BME280;59983;52.010;5.420;2022-10-15T10:33:43;100561.34;;;14.81;100.00
72110;BME280;59983;52.010;5.420;2022-10-15T10:36:33;100551.59;;;14.80;100.00
72110;BME280;59983;52.010;5.420;2022-10-15T10:39:24;100543.81;;;14.82;100.00
72110;BME280;59983;52.010;5.420;2022-10-15T10:44:27;100560.56;;;14.80;100.00
72110;BME280;59983;52.010;5.420;2022-10-15T10:47:14;100555.44;;;14.71;100.00
72110;BME280;59983;52.010;5.420;2022-10-15T10:49:44;100553.88;;;14.67;100.00
72110;BME280;59983;52.010;5.420;2022-10-15T10:54:54;100550.69;;;14.61;100.00
72110;BME280;59983;52.010;5.420;2022-10-15T10:57:39;100557.34;;;14.64;100.00
72110;BME280;59983;52.010;5.420;2022-10-15T11:00:14;100555.38;;;14.64;100.00
72110;BME280;59983;52.010;5.420;2022-10-15T11:02:42;100556.16;;;14.61;100.00
72110;BME280;59983;52.010;5.420;2022-10-15T11:05:10;100551.09;;;14.60;100.00
72110;BME280;59983;52.010;5.420;2022-10-15T11:07:40;100552.66;;;14.61;100.00
72110;BME280;59983;52.010;5.420;2022-10-15T11:10:20;100550.31;;;14.63;100.00
72110;BME280;59983;52.010;5.420;2022-10-15T11:13:31;100542.91;;;14.63;100.00
72110;BME280;59983;52.010;5.420;2022-10-15T11:16:01;100536.69;;;14.66;100.00
72110;BME280;59983;52.010;5.420;2022-10-15T11:27:10;100518.00;;;14.68;100.00
72110;BME280;59983;52.010;5.420;2022-10-15T11:29:50;100527.38;;;14.71;100.00
72110;BME280;59983;52.010;5.420;2022-10-15T11:40:11;100530.53;;;14.80;100.00
72110;BME280;59983;52.010;5.420;2022-10-15T11:42:57;100520.03;;;14.86;100.00
72110;BME280;59983;52.010;5.420;2022-10-15T11:50:39;100525.91;;;14.88;100.00
72110;BME280;59983;52.010;5.420;2022-10-15T11:58:31;100512.66;;;14.90;100.00
72110;BME280;59983;52.010;5.420;2022-10-15T12:01:03;100517.75;;;14.95;100.00
72110;BME280;59983;52.010;5.420;2022-10-15T12:03:35;100516.19;;;14.97;100.00
72110;BME280;59983;52.010;5.420;2022-10-15T12:06:08;100520.88;;;15.00;100.00
72110;BME280;59983;52.010;5.420;2022-10-15T12:08:37;100514.66;;;15.00;100.00
72110;BME280;59983;52.010;5.420;2022-10-15T12:14:04;100509.59;;;15.06;100.00
72110;BME280;59983;52.010;5.420;2022-10-15T12:16:45;100510.00;;;15.08;100.00
72110;BME280;59983;52.010;5.420;2022-10-15T12:19:25;100514.34;;;15.16;100.00
72110;BME280;59983;52.010;5.420;2022-10-15T12:29:45;100505.81;;;15.32;100.00
72110;BME280;59983;52.010;5.420;2022-10-15T12:32:27;100502.31;;;15.31;100.00
72110;BME280;59983;52.010;5.420;2022-10-15T12:34:59;100511.31;;;15.39;100.00
72110;BME280;59983;52.010;5.420;2022-10-15T12:37:29;100506.25;;;15.48;100.00
72110;BME280;59983;52.010;5.420;2022-10-15T12:39:59;100507.81;;;15.52;100.00
72110;BME280;59983;52.010;5.420;2022-10-15T12:42:33;100509.81;;;15.55;100.00
72110;BME280;59983;52.010;5.420;2022-10-15T12:45:03;100513.69;;;15.54;100.00
72110;BME280;59983;52.010;5.420;2022-10-15T12:50:24;100505.47;;;15.54;100.00
72110;BME280;59983;52.010;5.420;2022-10-15T12:57:54;100511.47;;;15.81;100.00
72110;BME280;59983;52.010;5.420;2022-10-15T13:00:38;100518.88;;;15.84;100.00
72110;BME280;59983;52.010;5.420;2022-10-15T13:03:14;100514.97;;;15.82;100.00
72110;BME280;59983;52.010;5.420;2022-10-15T13:05:43;100510.25;;;15.79;100.00
72110;BME280;59983;52.010;5.420;2022-10-15T13:08:19;100525.50;;;15.87;100.00
72110;BME280;59983;52.010;5.420;2022-10-15T13:10:51;100519.25;;;15.90;100.00
72110;BME280;59983;52.010;5.420;2022-10-15T13:13:23;100515.38;;;15.95;100.00
72110;BME280;59983;52.010;5.420;2022-10-15T13:16:01;100512.63;;;15.98;100.00
72110;BME280;59983;52.010;5.420;2022-10-15T13:18:32;100533.72;;;15.98;100.00
72110;BME280;59983;52.010;5.420;2022-10-15T13:20:59;100522.41;;;15.92;100.00
72110;BME280;59983;52.010;5.420;2022-10-15T13:23:32;100530.19;;;15.90;100.00
72110;BME280;59983;52.010;5.420;2022-10-15T13:26:14;100529.81;;;15.88;100.00
72110;BME280;59983;52.010;5.420;2022-10-15T13:28:42;100538.41;;;15.83;100.00
72110;BME280;59983;52.010;5.420;2022-10-15T13:31:27;100541.13;;;15.79;100.00
72110;BME280;59983;52.010;5.420;2022-10-15T13:34:29;100531.75;;;15.73;100.00
72110;BME280;59983;52.010;5.420;2022-10-15T13:36:59;100532.91;;;15.79;100.00
72110;BME280;59983;52.010;5.420;2022-10-15T13:39:35;100543.47;;;15.81;100.00
72110;BME280;59983;52.010;5.420;2022-10-15T13:44:40;100548.16;;;15.80;100.00
72110;BME280;59983;52.010;5.420;2022-10-15T13:55:31;100571.56;;;15.71;100.00
72110;BME280;59983;52.010;5.420;2022-10-15T13:58:20;100554.81;;;15.76;100.00
72110;BME280;59983;52.010;5.420;2022-10-15T14:00:57;100549.72;;;15.74;100.00
72110;BME280;59983;52.010;5.420;2022-10-15T14:03:30;100547.38;;;15.76;100.00
72110;BME280;59983;52.010;5.420;2022-10-15T14:06:07;100542.69;;;15.80;100.00
72110;BME280;59983;52.010;5.420;2022-10-15T14:08:35;100554.44;;;15.84;100.00
72110;BME280;59983;52.010;5.420;2022-10-15T14:11:02;100560.28;;;15.83;100.00
72110;BME280;59983;52.010;5.420;2022-10-15T14:13:28;100571.63;;;15.85;100.00
72110;BME280;59983;52.010;5.420;2022-10-15T14:15:59;100581.78;;;15.88;100.00
72110;BME280;59983;52.010;5.420;2022-10-15T14:18:35;100582.97;;;15.91;100.00
72110;BME280;59983;52.010;5.420;2022-10-15T14:21:03;100589.22;;;15.91;100.00
72110;BME280;59983;52.010;5.420;2022-10-15T14:23:35;100590.41;;;16.01;100.00
72110;BME280;59983;52.010;5.420;2022-10-15T14:26:02;100590.84;;;16.10;99.55
72110;BME280;59983;52.010;5.420;2022-10-15T14:28:31;100598.63;;;16.15;97.66
72110;BME280;59983;52.010;5.420;2022-10-15T14:30:59;100603.34;;;16.11;98.38
72110;BME280;59983;52.010;5.420;2022-10-15T14:33:41;100603.72;;;16.02;98.15
72110;BME280;59983;52.010;5.420;2022-10-15T14:38:48;100618.16;;;15.96;98.42
72110;BME280;59983;52.010;5.420;2022-10-15T14:41:26;100620.50;;;15.94;98.17
72110;BME280;59983;52.010;5.420;2022-10-15T14:44:14;100630.22;;;15.88;96.67
72110;BME280;59983;52.010;5.420;2022-10-15T14:46:45;100632.56;;;15.85;97.60
72110;BME280;59983;52.010;5.420;2022-10-15T14:51:44;100645.44;;;15.78;94.62
72110;BME280;59983;52.010;5.420;2022-10-15T14:54:19;100638.41;;;15.73;95.04